createdAt,value
2023-05-06T00:02:39.392Z,99.90
2023-05-06T00:05:25.178Z,99.90
2023-05-06T00:08:12.486Z,99.90
2023-05-06T00:10:58.583Z,99.90
2023-05-06T00:13:44.228Z,99.90
2023-05-06T00:16:29.832Z,99.90
2023-05-06T00:19:15.561Z,99.90
2023-05-06T00:22:01.507Z,99.90
2023-05-06T00:24:48.940Z,99.90
2023-05-06T00:27:34.576Z,99.90
2023-05-06T00:30:20.220Z,99.90
2023-05-06T00:33:06.192Z,99.90
2023-05-06T00:35:52.784Z,99.90
2023-05-06T00:38:38.340Z,99.90
2023-05-06T00:41:25.365Z,99.90
2023-05-06T00:44:11.614Z,99.90
2023-05-06T00:46:58.801Z,99.90
2023-05-06T00:49:46.091Z,99.90
2023-05-06T00:52:32.053Z,99.90
2023-05-06T00:55:18.125Z,99.90
2023-05-06T00:58:05.746Z,99.90
2023-05-06T01:00:52.305Z,99.90
2023-05-06T01:03:38.377Z,99.90
2023-05-06T01:06:30.018Z,99.90
2023-05-06T01:09:23.940Z,99.90
2023-05-06T01:12:17.167Z,99.90
2023-05-06T01:15:11.176Z,99.90
2023-05-06T01:17:59.720Z,99.90
2023-05-06T01:20:49.783Z,99.90
2023-05-06T01:23:52.967Z,99.90
2023-05-06T01:26:38.720Z,99.90
2023-05-06T01:29:25.152Z,99.90
2023-05-06T01:32:28.543Z,99.90
2023-05-06T01:35:20.629Z,99.90
2023-05-06T01:38:14.829Z,99.90
2023-05-06T01:41:02.861Z,99.90
2023-05-06T01:43:53.008Z,99.90
2023-05-06T01:46:38.579Z,99.90
2023-05-06T01:49:26.239Z,99.90
2023-05-06T01:52:11.748Z,99.90
2023-05-06T01:54:58.239Z,99.90
2023-05-06T01:57:45.085Z,99.90
2023-05-06T02:00:30.851Z,99.90
2023-05-06T02:03:16.574Z,99.90
2023-05-06T02:06:02.388Z,99.90
2023-05-06T02:08:51.975Z,99.90
2023-05-06T02:11:41.805Z,99.90
2023-05-06T02:14:28.944Z,99.90
2023-05-06T02:17:15.735Z,99.90
2023-05-06T02:20:01.354Z,99.90
2023-05-06T02:22:46.877Z,99.90
2023-05-06T02:25:33.387Z,99.90
2023-05-06T02:28:19.140Z,99.90
2023-05-06T02:31:06.115Z,99.90
2023-05-06T02:33:51.987Z,99.90
2023-05-06T02:36:37.376Z,99.90
2023-05-06T02:39:23.025Z,99.90
2023-05-06T02:42:08.781Z,99.90
2023-05-06T02:44:54.383Z,99.90
2023-05-06T02:47:41.473Z,99.90
2023-05-06T02:50:27.203Z,99.90
2023-05-06T02:53:13.362Z,99.90
2023-05-06T02:55:59.181Z,99.90
2023-05-06T02:58:44.802Z,99.90
2023-05-06T03:01:31.068Z,99.90
2023-05-06T03:04:18.470Z,99.90
2023-05-06T03:07:04.050Z,99.90
2023-05-06T03:09:50.882Z,99.90
2023-05-06T03:12:36.590Z,99.90
2023-05-06T03:15:22.743Z,99.90
2023-05-06T03:18:08.572Z,99.90
2023-05-06T03:20:56.649Z,99.90
2023-05-06T03:23:42.294Z,99.90
2023-05-06T03:26:28.435Z,99.90
2023-05-06T03:29:14.996Z,99.90
2023-05-06T03:32:06.548Z,99.90
2023-05-06T03:34:59.088Z,99.90
2023-05-06T03:37:46.334Z,99.90
2023-05-06T03:40:32.751Z,99.90
2023-05-06T03:43:19.828Z,99.90
2023-05-06T03:46:09.087Z,99.90
2023-05-06T03:48:56.282Z,99.90
2023-05-06T03:51:42.374Z,99.90
2023-05-06T03:54:29.598Z,99.90
2023-05-06T03:57:15.803Z,99.90
2023-05-06T04:00:02.404Z,99.90
2023-05-06T04:02:50.428Z,99.90
2023-05-06T04:05:42.279Z,99.90
2023-05-06T04:08:30.933Z,99.90
2023-05-06T04:11:18.351Z,99.90
2023-05-06T04:14:05.731Z,99.90
2023-05-06T04:16:52.035Z,99.90
2023-05-06T04:19:38.079Z,99.90
2023-05-06T04:22:23.800Z,99.90
2023-05-06T04:25:12.165Z,99.90
2023-05-06T04:27:59.298Z,99.90
2023-05-06T04:30:45.990Z,99.90
2023-05-06T04:33:32.882Z,99.90
2023-05-06T04:36:21.864Z,99.90
2023-05-06T04:39:18.089Z,99.90
2023-05-06T04:42:04.939Z,99.90
2023-05-06T04:44:59.390Z,99.90
2023-05-06T04:47:49.075Z,99.90
2023-05-06T04:50:36.791Z,99.90
2023-05-06T04:53:22.185Z,99.90
2023-05-06T04:56:08.303Z,99.90
2023-05-06T04:58:55.587Z,99.90
2023-05-06T05:01:42.797Z,99.90
2023-05-06T05:04:29.910Z,99.90
2023-05-06T05:07:15.924Z,99.90
2023-05-06T05:10:01.419Z,99.90
2023-05-06T05:12:47.359Z,99.90
2023-05-06T05:15:33.427Z,99.90
2023-05-06T05:18:20.172Z,99.90
2023-05-06T05:21:08.206Z,99.90
2023-05-06T05:23:55.369Z,99.90
2023-05-06T05:26:41.347Z,99.30
2023-05-06T05:29:26.888Z,96.50
2023-05-06T05:32:13.172Z,94.40
2023-05-06T05:35:00.569Z,92.70
2023-05-06T05:37:46.946Z,91.90
2023-05-06T05:40:33.329Z,90.90
2023-05-06T05:43:21.333Z,88.90
2023-05-06T05:46:09.322Z,89.40
2023-05-06T05:48:56.409Z,85.60
2023-05-06T05:51:44.112Z,88.40
2023-05-06T05:54:32.261Z,90.20
2023-05-06T05:57:18.355Z,90.90
2023-05-06T06:00:05.854Z,91.60
2023-05-06T06:03:02.508Z,92.80
2023-05-06T06:05:49.517Z,94.30
2023-05-06T06:08:37.050Z,95.70
2023-05-06T06:11:25.319Z,96.30
2023-05-06T06:14:11.353Z,97.70
2023-05-06T06:16:56.896Z,98.60
2023-05-06T06:19:45.825Z,99.20
2023-05-06T06:22:31.535Z,99.30
2023-05-06T06:25:19.049Z,99.90
2023-05-06T06:28:05.158Z,99.90
2023-05-06T06:30:53.784Z,99.90
2023-05-06T06:33:39.486Z,99.90
2023-05-06T06:36:24.895Z,99.90
2023-05-06T06:39:10.603Z,99.90
2023-05-06T06:42:04.387Z,99.90
2023-05-06T06:44:56.110Z,99.90
2023-05-06T06:47:41.750Z,99.90
2023-05-06T06:50:27.382Z,99.90
2023-05-06T06:53:13.122Z,99.90
2023-05-06T06:55:58.703Z,99.90
2023-05-06T06:58:45.660Z,99.90
2023-05-06T07:01:31.460Z,99.90
2023-05-06T07:04:17.432Z,99.90
2023-05-06T07:07:03.062Z,99.90
2023-05-06T07:09:48.494Z,99.90
2023-05-06T07:12:34.373Z,99.90
2023-05-06T07:15:21.587Z,99.90
2023-05-06T07:18:07.416Z,99.90
2023-05-06T07:20:52.914Z,99.90
2023-05-06T07:23:38.576Z,99.90
2023-05-06T07:26:24.594Z,99.90
2023-05-06T07:29:10.671Z,99.90
2023-05-06T07:31:58.229Z,99.00
2023-05-06T07:34:45.819Z,99.40
2023-05-06T07:37:31.501Z,98.50
2023-05-06T07:40:17.344Z,98.00
2023-05-06T07:43:02.950Z,97.60
2023-05-06T07:45:49.004Z,97.30
2023-05-06T07:48:36.493Z,97.70
2023-05-06T07:51:27.647Z,97.90
2023-05-06T07:54:13.444Z,97.60
2023-05-06T07:56:58.954Z,97.10
2023-05-06T07:59:47.242Z,97.70
2023-05-06T08:02:33.364Z,97.50
2023-05-06T08:05:20.427Z,97.50
2023-05-06T08:08:06.407Z,97.60
2023-05-06T08:10:52.028Z,97.20
2023-05-06T08:13:37.658Z,96.50
2023-05-06T08:16:25.195Z,96.30
2023-05-06T08:19:12.201Z,95.50
2023-05-06T08:21:59.087Z,95.00
2023-05-06T08:24:44.826Z,94.80
2023-05-06T08:27:30.796Z,93.70
2023-05-06T08:30:16.522Z,93.80
2023-05-06T08:33:02.493Z,94.40
2023-05-06T08:35:49.528Z,94.70
2023-05-06T08:38:36.822Z,93.60
2023-05-06T08:41:24.490Z,92.20
2023-05-06T08:44:10.672Z,91.80
2023-05-06T08:46:56.420Z,91.70
2023-05-06T08:49:41.968Z,91.90
2023-05-06T08:52:28.647Z,91.70
2023-05-06T08:55:16.691Z,92.00
2023-05-06T08:58:03.356Z,92.10
2023-05-06T09:00:49.095Z,91.40
2023-05-06T09:03:34.731Z,91.30
2023-05-06T09:06:20.863Z,90.00
2023-05-06T09:09:07.005Z,86.60
2023-05-06T09:11:57.127Z,83.50
2023-05-06T09:14:43.194Z,83.10
2023-05-06T09:17:32.604Z,80.70
2023-05-06T09:20:18.677Z,80.30
2023-05-06T09:23:05.007Z,76.30
2023-05-06T09:25:51.160Z,78.40
2023-05-06T09:28:37.950Z,77.20
2023-05-06T09:31:24.081Z,79.30
2023-05-06T09:34:10.159Z,81.90
2023-05-06T09:36:57.637Z,82.80
2023-05-06T09:39:43.392Z,84.20
2023-05-06T09:42:29.992Z,85.60
2023-05-06T09:45:17.810Z,84.40
2023-05-06T09:48:03.944Z,83.80
2023-05-06T09:50:50.509Z,84.90
2023-05-06T09:53:39.606Z,81.90
2023-05-06T09:56:26.066Z,81.20
2023-05-06T09:59:13.254Z,80.20
2023-05-06T10:02:02.165Z,77.60
2023-05-06T10:04:49.773Z,77.70
2023-05-06T10:07:36.303Z,78.20
2023-05-06T10:10:25.362Z,74.90
2023-05-06T10:13:12.057Z,75.40
2023-05-06T10:16:01.607Z,79.40
2023-05-06T10:18:51.545Z,77.60
2023-05-06T10:21:42.369Z,75.50
2023-05-06T10:24:30.910Z,73.80
2023-05-06T10:27:18.774Z,73.90
2023-05-06T10:30:06.992Z,70.30
2023-05-06T10:32:55.045Z,68.60
2023-05-06T10:35:47.148Z,69.40
2023-05-06T10:38:37.410Z,69.00
2023-05-06T10:41:27.666Z,67.20
2023-05-06T10:44:14.074Z,66.20
2023-05-06T10:47:03.171Z,66.40
2023-05-06T10:50:20.108Z,66.80
2023-05-06T10:53:07.565Z,67.90
2023-05-06T10:56:08.861Z,68.00
2023-05-06T10:58:55.887Z,70.00
2023-05-06T11:01:43.013Z,69.20
2023-05-06T11:04:31.213Z,67.40
2023-05-06T11:07:23.073Z,61.80
2023-05-06T11:10:12.040Z,60.20
2023-05-06T11:12:57.906Z,62.10
2023-05-06T11:15:47.524Z,60.80
2023-05-06T11:18:43.553Z,61.60
2023-05-06T11:21:37.110Z,62.50
2023-05-06T11:24:27.845Z,60.10
2023-05-06T11:27:19.607Z,61.80
2023-05-06T11:30:06.797Z,61.10
2023-05-06T11:32:55.900Z,62.30
2023-05-06T11:35:41.818Z,66.30
2023-05-06T11:38:42.646Z,66.70
2023-05-06T11:41:28.892Z,63.60
2023-05-06T11:44:29.751Z,61.90
2023-05-06T11:47:15.950Z,65.50
2023-05-06T11:50:07.623Z,60.20
2023-05-06T11:52:53.561Z,62.30
2023-05-06T11:55:39.136Z,61.20
2023-05-06T11:58:26.397Z,62.90
2023-05-06T12:01:13.760Z,62.70
2023-05-06T12:03:59.757Z,62.20
2023-05-06T12:06:46.603Z,62.50
2023-05-06T12:09:34.392Z,61.20
2023-05-06T12:12:23.212Z,58.40
2023-05-06T12:15:10.780Z,58.60
2023-05-06T12:17:57.878Z,58.90
2023-05-06T12:20:43.457Z,57.90
2023-05-06T12:26:14.758Z,56.00
2023-05-06T12:29:07.019Z,56.80
2023-05-06T12:32:08.372Z,54.50
2023-05-06T12:34:56.506Z,56.40
2023-05-06T12:37:42.154Z,55.30
2023-05-06T12:40:28.847Z,57.40
2023-05-06T12:43:14.729Z,55.10
2023-05-06T12:46:04.634Z,54.10
2023-05-06T12:48:57.681Z,55.50
2023-05-06T12:51:47.111Z,55.10
2023-05-06T12:54:33.535Z,56.30
2023-05-06T12:57:19.309Z,57.70
2023-05-06T13:00:07.430Z,57.40
2023-05-06T13:02:53.592Z,57.30
2023-05-06T13:05:39.560Z,57.70
2023-05-06T13:08:28.497Z,57.00
2023-05-06T13:11:14.271Z,56.70
2023-05-06T13:14:00.062Z,59.00
2023-05-06T13:16:46.544Z,58.30
2023-05-06T13:19:33.434Z,58.90
2023-05-06T13:22:20.154Z,62.60
2023-05-06T13:25:07.971Z,61.70
2023-05-06T13:27:53.695Z,58.50
2023-05-06T13:30:39.539Z,59.30
2023-05-06T13:33:25.630Z,57.90
2023-05-06T13:36:11.467Z,57.40
2023-05-06T13:38:57.514Z,57.80
2023-05-06T13:41:46.356Z,56.60
2023-05-06T13:44:33.028Z,58.30
2023-05-06T13:47:18.800Z,59.30
2023-05-06T13:50:05.863Z,59.80
2023-05-06T13:52:51.908Z,59.00
2023-05-06T13:55:37.394Z,59.00
2023-05-06T13:58:24.269Z,59.30
2023-05-06T14:01:09.836Z,59.20
2023-05-06T14:03:55.486Z,59.30
2023-05-06T14:06:41.465Z,62.10
2023-05-06T14:09:27.316Z,64.50
2023-05-06T14:12:13.075Z,65.40
2023-05-06T14:15:00.130Z,64.40
2023-05-06T14:17:49.741Z,65.40
2023-05-06T14:20:35.574Z,65.10
2023-05-06T14:23:21.098Z,65.80
2023-05-06T14:26:06.712Z,64.20
2023-05-06T14:28:52.509Z,63.70
2023-05-06T14:31:39.486Z,64.00
2023-05-06T14:34:26.697Z,64.70
2023-05-06T14:37:12.626Z,64.90
2023-05-06T14:39:58.281Z,65.00
2023-05-06T14:42:45.419Z,68.40
2023-05-06T14:45:31.385Z,65.80
2023-05-06T14:48:18.525Z,62.70
2023-05-06T14:51:05.042Z,61.90
2023-05-06T14:53:51.035Z,62.50
2023-05-06T14:56:36.682Z,62.40
2023-05-06T14:59:22.665Z,63.70
2023-05-06T15:02:09.796Z,64.10
2023-05-06T15:04:57.174Z,64.70
2023-05-06T15:07:43.033Z,65.50
2023-05-06T15:10:28.590Z,64.00
2023-05-06T15:13:14.441Z,64.00
2023-05-06T15:16:00.230Z,62.30
2023-05-06T15:18:45.972Z,63.40
2023-05-06T15:21:33.161Z,63.90
2023-05-06T15:24:18.996Z,63.80
2023-05-06T15:27:05.128Z,63.50
2023-05-06T15:29:51.480Z,62.60
2023-05-06T15:32:37.076Z,62.90
2023-05-06T15:35:22.862Z,61.60
2023-05-06T15:38:10.931Z,61.70
2023-05-06T15:40:56.831Z,62.00
2023-05-06T15:43:42.547Z,62.00
2023-05-06T15:46:29.161Z,61.90
2023-05-06T15:49:45.537Z,63.10
2023-05-06T15:52:21.187Z,61.80
2023-05-06T15:55:09.942Z,63.40
2023-05-06T15:57:56.532Z,64.20
2023-05-06T16:00:43.554Z,65.40
2023-05-06T16:03:29.308Z,64.50
2023-05-06T16:06:15.827Z,65.40
2023-05-06T16:09:01.870Z,65.40
2023-05-06T16:11:49.423Z,66.10
2023-05-06T16:14:35.097Z,65.10
2023-05-06T16:17:20.909Z,65.30
2023-05-06T16:20:10.445Z,65.10
2023-05-06T16:22:56.136Z,63.00
2023-05-06T16:25:42.370Z,64.20
2023-05-06T16:28:30.033Z,64.00
2023-05-06T16:31:15.517Z,64.40
2023-05-06T16:34:01.355Z,64.20
2023-05-06T16:36:47.505Z,65.40
2023-05-06T16:39:33.508Z,66.40
2023-05-06T16:42:19.369Z,63.90
2023-05-06T16:45:07.892Z,65.70
2023-05-06T16:47:53.355Z,67.40
2023-05-06T16:50:39.052Z,66.50
2023-05-06T16:53:27.720Z,66.10
2023-05-06T16:56:13.562Z,66.20
2023-05-06T16:58:59.495Z,66.00
2023-05-06T17:01:46.810Z,68.70
2023-05-06T17:04:32.694Z,68.10
2023-05-06T17:07:18.274Z,69.00
2023-05-06T17:10:04.595Z,70.30
2023-05-06T17:12:50.098Z,69.50
2023-05-06T17:15:36.160Z,69.00
2023-05-06T17:18:24.512Z,70.00
2023-05-06T17:21:10.709Z,70.00
2023-05-06T17:23:56.741Z,70.20
2023-05-06T17:26:42.546Z,70.30
2023-05-06T17:29:28.660Z,71.00
2023-05-06T17:32:17.356Z,71.60
2023-05-06T17:35:04.697Z,76.80
2023-05-06T17:37:50.178Z,81.70
2023-05-06T17:40:36.342Z,86.00
2023-05-06T17:43:22.245Z,90.60
2023-05-06T17:46:09.477Z,92.80
2023-05-06T17:48:55.569Z,96.00
2023-05-06T17:51:45.236Z,99.10
2023-05-06T17:54:35.093Z,99.90
2023-05-06T17:57:21.957Z,99.90
2023-05-06T18:00:09.059Z,99.90
2023-05-06T18:03:01.311Z,99.90
2023-05-06T18:05:47.126Z,99.90
2023-05-06T18:08:34.459Z,99.90
2023-05-06T18:11:20.757Z,99.90
2023-05-06T18:14:06.868Z,99.90
2023-05-06T18:16:52.697Z,99.90
2023-05-06T18:19:38.783Z,99.90
2023-05-06T18:22:24.743Z,99.90
2023-05-06T18:25:12.366Z,99.90
2023-05-06T18:27:58.530Z,99.90
2023-05-06T18:30:44.425Z,99.90
2023-05-06T18:33:30.068Z,99.90
2023-05-06T18:36:16.034Z,99.90
2023-05-06T18:39:01.968Z,99.90
2023-05-06T18:41:49.197Z,99.90
2023-05-06T18:44:34.962Z,99.90
2023-05-06T18:47:20.961Z,99.90
2023-05-06T18:50:08.546Z,99.90
2023-05-06T18:52:55.845Z,99.90
2023-05-06T18:55:41.844Z,99.90
2023-05-06T18:58:29.493Z,99.90
2023-05-06T19:01:15.957Z,99.90
2023-05-06T19:04:02.137Z,99.90
2023-05-06T19:06:48.287Z,99.90
2023-05-06T19:09:36.947Z,99.90
2023-05-06T19:12:23.272Z,99.90
2023-05-06T19:15:12.620Z,99.90
2023-05-06T19:17:58.869Z,99.90
2023-05-06T19:20:44.858Z,99.90
2023-05-06T19:23:31.721Z,99.90
2023-05-06T19:26:17.463Z,99.90
2023-05-06T19:29:03.395Z,99.90
2023-05-06T19:31:50.834Z,99.90
2023-05-06T19:34:36.603Z,99.90
2023-05-06T19:37:22.164Z,99.90
2023-05-06T19:40:09.169Z,99.90
2023-05-06T19:42:54.898Z,99.90
2023-05-06T19:45:41.775Z,99.90
2023-05-06T19:48:28.968Z,99.90
2023-05-06T19:51:14.282Z,99.90
2023-05-06T19:53:59.848Z,99.90
2023-05-06T19:56:45.500Z,99.90
2023-05-06T19:59:31.118Z,99.90
2023-05-06T20:02:16.753Z,99.90
2023-05-06T20:05:03.872Z,99.90
2023-05-06T20:07:49.967Z,99.90
2023-05-06T20:10:35.511Z,99.90
2023-05-06T20:13:21.428Z,99.90
2023-05-06T20:16:07.586Z,99.90
2023-05-06T20:18:53.462Z,99.90
2023-05-06T20:21:40.391Z,99.90
2023-05-06T20:24:29.241Z,99.90
2023-05-06T20:27:15.076Z,99.90
2023-05-06T20:30:00.833Z,99.90
2023-05-06T20:32:46.773Z,99.90
2023-05-06T20:35:37.951Z,99.90
2023-05-06T20:38:26.954Z,99.90
2023-05-06T20:41:12.515Z,99.90
2023-05-06T20:43:58.399Z,99.90
2023-05-06T20:46:44.595Z,99.90
2023-05-06T20:49:30.635Z,99.90
2023-05-06T20:52:16.423Z,99.90
2023-05-06T20:55:05.717Z,99.90
2023-05-06T20:57:51.476Z,99.90
2023-05-06T21:00:37.089Z,99.90
2023-05-06T21:03:24.002Z,99.90
2023-05-06T21:06:09.876Z,99.90
2023-05-06T21:08:55.704Z,99.90
2023-05-06T21:11:42.523Z,99.90
2023-05-06T21:14:28.266Z,99.90
2023-05-06T21:17:13.996Z,99.90
2023-05-06T21:19:59.833Z,99.90
2023-05-06T21:22:45.833Z,99.90
2023-05-06T21:25:31.744Z,99.90
2023-05-06T21:28:19.011Z,99.90
2023-05-06T21:31:05.170Z,99.90
2023-05-06T21:33:54.887Z,99.90
2023-05-06T21:36:41.004Z,99.90
2023-05-06T21:39:26.920Z,99.90
2023-05-06T21:42:12.966Z,99.90
2023-05-06T21:44:59.722Z,99.90
2023-05-06T21:47:45.975Z,99.90
2023-05-06T21:50:31.735Z,99.90
2023-05-06T21:53:17.254Z,99.90
2023-05-06T21:56:03.052Z,99.90
2023-05-06T21:58:48.875Z,99.90
2023-05-06T22:01:36.298Z,99.90
2023-05-06T22:04:21.887Z,99.90
2023-05-06T22:07:07.556Z,99.90
2023-05-06T22:09:53.232Z,99.90
2023-05-06T22:12:39.382Z,99.90
2023-05-06T22:15:25.088Z,99.90
2023-05-06T22:18:13.789Z,99.90
2023-05-06T22:20:59.674Z,99.90
2023-05-06T22:23:45.759Z,99.90
2023-05-06T22:26:32.940Z,99.90
2023-05-06T22:29:18.942Z,99.90
2023-05-06T22:32:05.239Z,99.90
2023-05-06T22:34:52.514Z,99.90
2023-05-06T22:37:38.171Z,99.90
2023-05-06T22:40:24.171Z,99.90
2023-05-06T22:43:10.052Z,99.90
2023-05-06T22:45:56.011Z,99.90
2023-05-06T22:48:44.622Z,99.90
2023-05-06T22:51:33.262Z,99.90
2023-05-06T22:54:18.805Z,99.90
2023-05-06T22:57:04.390Z,99.90
2023-05-06T22:59:50.078Z,99.90
2023-05-06T23:02:36.079Z,99.90
2023-05-06T23:05:22.045Z,99.90
2023-05-06T23:08:09.214Z,99.90
2023-05-06T23:10:55.040Z,99.90
2023-05-06T23:13:40.592Z,99.90
2023-05-06T23:16:26.311Z,99.90
2023-05-06T23:19:12.227Z,99.90
2023-05-06T23:21:57.834Z,99.90
2023-05-06T23:24:45.900Z,99.90
2023-05-06T23:27:31.635Z,99.90
2023-05-06T23:30:17.517Z,99.90
2023-05-06T23:33:03.824Z,99.90
2023-05-06T23:35:49.758Z,99.90
2023-05-06T23:38:35.657Z,99.90
2023-05-06T23:41:23.558Z,99.90
2023-05-06T23:44:09.549Z,99.90
2023-05-06T23:46:55.437Z,99.90
2023-05-06T23:49:41.526Z,99.90
2023-05-06T23:52:27.263Z,99.90
2023-05-06T23:55:13.316Z,99.90
2023-05-06T23:58:00.996Z,99.90
